Terminal Aerodrome Forecast
Issued by NWS

Home | Current Version | Previous Version | Text Only | Print | Product List | Glossary On
Versions: 1 2 3 4 5 6 7 8 9 10 11 12 13 14 15 16 17 18 19
000
FTAK31 PAJN 300500
TAFAKT
TAF
PAKT 300523Z 3006/3106 14008KT P6SM -SHRA SCT025 BKN030 OVC050
     FM301000 15004KT 5SM BR FEW006 BKN025
     FM301300 15004KT 6SM -SHRA BR FEW006 BKN025 BKN035
     FM301800 14009KT P6SM VCSH SCT025 OVC030
     FM302200 14011KT P6SM VCSH SCT025 OVC040
     FM310400 14005KT P6SM SCT025 OVC035
      AMD LTD TO CLD VIS AND WIND 3006/3015=

USA.gov is the U.S. government's official web portal to all federal, state and local government web resources and services.